Time;durP1;ratioP1;P1;durP2;ratioP2;P2;SDS_P1;SDS_P2;PMS_P1;PMS_P2;Temp;Humidity;BMP_temperature;BMP_pressure;BME280_temperature;BME280_humidity;BME280_pressure;Samples;Min_cycle;Max_cycle;Signal;HPM_P1;HPM_P2
2021/04/20 00:01:33;;;;;;;21.35;15.70;;;;;;;10.52;71.10;99406.28;4190942;34;34040;-82
2021/04/20 00:04:06;;;;;;;19.20;14.23;;;;;;;10.46;71.34;99402.47;4191337;34;34158;-95
2021/04/20 00:06:38;;;;;;;17.98;14.23;;;;;;;10.35;71.63;99400.31;4190013;34;34548;-95
2021/04/20 00:09:12;;;;;;;19.60;14.85;;;;;;;10.58;70.96;99400.94;4186857;34;35036;-96
2021/04/20 00:11:45;;;;;;;17.10;13.62;;;;;;;10.39;71.61;99398.91;4178788;34;34560;-82
2021/04/20 00:14:18;;;;;;;18.25;13.38;;;;;;;10.59;71.19;99390.97;4195462;34;33986;-95
2021/04/20 00:16:50;;;;;;;20.17;13.27;;;;;;;10.70;70.65;99387.72;4196032;34;33359;-82
2021/04/20 00:19:23;;;;;;;16.25;12.75;;;;;;;10.49;71.52;99403.97;4176380;34;34059;-83
2021/04/20 00:21:55;;;;;;;16.40;13.35;;;;;;;10.51;71.46;99391.09;4195736;34;33561;-82
2021/04/20 00:24:28;;;;;;;17.23;12.95;;;;;;;10.57;71.12;99388.47;4201062;34;33596;-82
2021/04/20 00:27:00;;;;;;;16.33;12.55;;;;;;;10.73;70.80;99387.34;4202130;34;34453;-94
2021/04/20 00:29:33;;;;;;;17.00;13.32;;;;;;;10.87;70.20;99388.25;4180095;34;34576;-82
2021/04/20 00:32:06;;;;;;;15.32;12.05;;;;;;;10.76;70.78;99392.34;4192752;34;35429;-95
2021/04/20 00:34:39;;;;;;;19.35;13.70;;;;;;;10.57;71.34;99393.03;4194108;34;34253;-82
2021/04/20 00:37:11;;;;;;;16.42;12.82;;;;;;;10.51;71.67;99393.78;4188308;34;34476;-82
2021/04/20 00:39:43;;;;;;;17.45;13.57;;;;;;;10.52;71.64;99401.69;4201935;34;34643;-82
2021/04/20 00:42:15;;;;;;;17.48;12.90;;;;;;;10.60;71.39;99382.66;4201636;34;34768;-82
2021/04/20 00:44:48;;;;;;;18.05;14.25;;;;;;;10.64;71.07;99377.69;4181030;34;33365;-96
2021/04/20 00:47:21;;;;;;;18.30;12.88;;;;;;;10.53;71.35;99380.94;4201525;34;33730;-82
2021/04/20 00:49:53;;;;;;;16.98;13.90;;;;;;;10.48;71.29;99384.22;4193829;34;33381;-82
2021/04/20 00:52:27;;;;;;;19.25;12.80;;;;;;;10.28;71.95;99384.00;4191653;34;33667;-96
2021/04/20 00:55:03;;;;;;;18.27;13.93;;;;;;;10.42;71.51;99383.13;4190184;34;34473;-96
2021/04/20 00:57:36;;;;;;;18.37;13.07;;;;;;;10.66;70.56;99374.78;4202463;34;33611;-82
2021/04/20 01:00:16;;;;;;;14.30;10.68;;;;;;;10.58;70.77;99373.94;4187796;34;34483;-96
2021/04/20 01:02:49;;;;;;;16.45;11.45;;;;;;;10.55;70.95;99368.91;4201265;34;35608;-83
2021/04/20 01:05:27;;;;;;;15.50;11.43;;;;;;;10.39;71.32;99386.22;4202413;34;34348;-96
2021/04/20 01:08:04;;;;;;;15.88;10.57;;;;;;;10.51;71.29;99367.63;4190539;34;35344;-96
2021/04/20 01:10:46;;;;;;;17.58;11.27;;;;;;;10.81;69.97;99367.41;4189500;34;34305;-96
2021/04/20 01:13:22;;;;;;;14.63;11.45;;;;;;;10.31;71.64;99372.81;4202107;34;35746;-96
2021/04/20 01:15:54;;;;;;;15.55;11.73;;;;;;;10.43;71.54;99356.94;4188649;34;34074;-96
2021/04/20 01:18:32;;;;;;;15.90;11.57;;;;;;;10.27;72.06;99365.31;4188808;34;34610;-82
2021/04/20 01:21:09;;;;;;;15.23;10.75;;;;;;;10.24;72.05;99366.53;4178365;34;34598;-96
2021/04/20 01:23:57;;;;;;;15.18;10.40;;;;;;;9.96;73.18;99371.88;4179201;34;33945;-82
2021/04/20 01:26:32;;;;;;;14.55;10.43;;;;;;;9.96;73.34;99367.31;4186738;34;33117;-82
2021/04/20 01:29:06;;;;;;;15.57;10.38;;;;;;;9.84;73.77;99367.00;4181960;34;35698;-83
2021/04/20 01:31:42;;;;;;;14.52;10.10;;;;;;;9.68;74.48;99378.84;4191078;34;34692;-83
2021/04/20 01:34:14;;;;;;;13.25;10.65;;;;;;;9.89;73.95;99375.37;4187764;34;34423;-82
2021/04/20 01:36:48;;;;;;;15.15;11.00;;;;;;;9.59;74.68;99374.59;4196038;34;33197;-96
2021/04/20 01:39:20;;;;;;;12.40;10.45;;;;;;;9.94;73.89;99371.22;4181228;34;33820;-82
2021/04/20 01:41:53;;;;;;;14.65;10.40;;;;;;;10.07;73.23;99376.75;4179092;34;34753;-83
2021/04/20 01:44:25;;;;;;;12.73;9.57;;;;;;;10.16;73.00;99369.37;4190226;34;33599;-82
2021/04/20 01:46:58;;;;;;;13.98;10.07;;;;;;;9.99;73.26;99369.63;4191216;34;33176;-82
2021/04/20 01:49:31;;;;;;;12.80;10.07;;;;;;;9.65;74.51;99370.31;4188687;34;33380;-82
2021/04/20 01:52:04;;;;;;;11.85;9.80;;;;;;;9.63;74.70;99372.38;4191401;34;33808;-96
2021/04/20 01:54:39;;;;;;;16.65;10.05;;;;;;;9.89;73.87;99371.81;4178149;34;35211;-96
2021/04/20 01:57:15;;;;;;;13.70;10.40;;;;;;;9.71;74.18;99370.41;4194586;34;33346;-83
2021/04/20 01:59:47;;;;;;;15.18;10.93;;;;;;;9.61;74.73;99371.72;4188689;34;34600;-83
2021/04/20 02:02:20;;;;;;;16.27;12.37;;;;;;;9.68;74.45;99368.06;4199713;34;34124;-96
2021/04/20 02:04:54;;;;;;;17.42;13.00;;;;;;;9.55;75.15;99367.94;4201146;34;34832;-95
2021/04/20 02:07:27;;;;;;;17.35;12.73;;;;;;;9.66;75.08;99372.81;4198150;34;34144;-82
2021/04/20 02:10:03;;;;;;;18.40;13.32;;;;;;;9.74;74.55;99371.03;4189581;34;35003;-96
2021/04/20 02:12:36;;;;;;;17.70;13.10;;;;;;;9.91;73.79;99367.06;4190520;34;33664;-96
2021/04/20 02:15:16;;;;;;;17.25;12.93;;;;;;;9.86;74.08;99364.09;4189622;34;34666;-82
2021/04/20 02:17:49;;;;;;;18.50;12.63;;;;;;;9.90;74.33;99365.38;4190095;34;33314;-96
2021/04/20 02:20:23;;;;;;;17.27;12.82;;;;;;;9.98;73.78;99359.84;4186318;34;33848;-82
2021/04/20 02:22:55;;;;;;;19.08;13.70;;;;;;;9.98;73.52;99361.72;4175538;34;33977;-96
2021/04/20 02:25:28;;;;;;;17.67;11.38;;;;;;;10.03;73.29;99360.13;4181814;34;33787;-82
2021/04/20 02:28:00;;;;;;;16.67;12.75;;;;;;;9.81;73.84;99355.75;4181848;34;33896;-96
2021/04/20 02:30:33;;;;;;;17.90;12.93;;;;;;;9.71;74.40;99356.06;4189566;34;33152;-82
2021/04/20 02:33:05;;;;;;;18.48;12.90;;;;;;;9.86;73.95;99356.00;4191073;34;34675;-96
2021/04/20 02:35:39;;;;;;;17.02;13.45;;;;;;;9.54;75.23;99364.38;4178816;34;33813;-83
2021/04/20 02:38:14;;;;;;;19.00;13.30;;;;;;;9.70;74.52;99363.31;4178702;34;34526;-96
2021/04/20 02:40:47;;;;;;;20.33;14.02;;;;;;;9.57;75.10;99360.47;4188178;34;33670;-96
2021/04/20 02:43:20;;;;;;;19.60;13.40;;;;;;;8.96;77.68;99358.03;4186511;34;34765;-82
2021/04/20 02:45:59;;;;;;;23.52;14.77;;;;;;;9.15;76.60;99359.34;4201978;34;33962;-83
2021/04/20 02:48:33;;;;;;;19.58;13.88;;;;;;;9.59;75.57;99360.28;4201083;34;34557;-96
2021/04/20 02:51:10;;;;;;;20.70;14.23;;;;;;;9.65;75.10;99368.44;4177018;34;33671;-82
2021/04/20 02:53:43;;;;;;;20.05;14.00;;;;;;;9.97;74.06;99349.25;4176604;34;33016;-83
2021/04/20 02:56:17;;;;;;;21.73;15.10;;;;;;;10.02;73.56;99355.75;4178317;34;34839;-96
2021/04/20 02:58:49;;;;;;;19.90;14.60;;;;;;;10.13;73.33;99353.56;4186323;34;35941;-96
2021/04/20 03:01:24;;;;;;;19.90;14.32;;;;;;;9.89;73.80;99351.06;4190020;34;34569;-82
2021/04/20 03:03:56;;;;;;;17.52;12.82;;;;;;;10.04;73.32;99351.00;4175626;34;35369;-96
2021/04/20 03:06:29;;;;;;;15.23;12.30;;;;;;;10.23;72.43;99351.38;4191314;34;33641;-82
2021/04/20 03:09:02;;;;;;;17.30;13.48;;;;;;;10.17;72.69;99342.16;4187662;34;34044;-96
2021/04/20 03:11:44;;;;;;;20.37;14.30;;;;;;;10.05;73.04;99349.94;4175780;34;33430;-96
2021/04/20 03:14:18;;;;;;;17.02;13.40;;;;;;;10.37;72.02;99339.69;4179843;34;33645;-95
2021/04/20 03:16:51;;;;;;;18.48;13.98;;;;;;;10.39;71.73;99337.59;4200550;34;35779;-82
2021/04/20 03:19:23;;;;;;;16.58;13.25;;;;;;;10.22;72.40;99344.28;4185680;34;32915;-83
2021/04/20 03:21:56;;;;;;;17.00;12.80;;;;;;;10.40;71.50;99328.47;4191866;34;34612;-82
2021/04/20 03:24:31;;;;;;;16.58;12.55;;;;;;;10.48;71.04;99335.59;4178233;34;34643;-82
2021/04/20 03:27:05;;;;;;;18.85;12.88;;;;;;;10.28;71.46;99346.19;4189775;34;33761;-83
2021/04/20 03:29:38;;;;;;;18.60;14.10;;;;;;;10.31;71.56;99332.31;4178503;34;32618;-96
2021/04/20 03:32:11;;;;;;;26.27;14.52;;;;;;;10.32;71.55;99336.69;4178955;34;35135;-83
2021/04/20 03:34:48;;;;;;;20.00;14.80;;;;;;;9.83;73.38;99342.88;4190087;34;34061;-82
2021/04/20 03:37:30;;;;;;;20.52;14.52;;;;;;;10.02;73.06;99347.63;4189757;34;34813;-82
2021/04/20 03:40:07;;;;;;;20.12;14.48;;;;;;;10.19;72.31;99345.50;4190072;34;33550;-82
2021/04/20 03:42:47;;;;;;;19.62;13.45;;;;;;;10.15;72.17;99354.19;4190368;34;34335;-96
2021/04/20 03:45:26;;;;;;;16.98;13.73;;;;;;;10.24;71.90;99351.16;4199087;34;34190;-95
2021/04/20 03:48:22;;;;;;;20.90;16.27;;;;;;;10.19;71.46;99353.59;4200626;34;34760;-82
2021/04/20 03:51:05;;;;;;;23.75;16.95;;;;;;;10.27;72.15;99344.56;4188096;34;35026;-83
2021/04/20 03:53:40;;;;;;;27.35;17.90;;;;;;;9.81;73.98;99350.34;4190285;34;34733;-96
2021/04/20 03:56:13;;;;;;;25.10;17.62;;;;;;;9.79;74.55;99347.00;4183660;34;34138;-83
2021/04/20 03:58:45;;;;;;;27.85;19.20;;;;;;;10.00;74.06;99348.84;4192067;34;33533;-83
2021/04/20 04:01:18;;;;;;;28.65;19.73;;;;;;;9.84;74.77;99349.97;4198978;34;33347;-96
2021/04/20 04:03:52;;;;;;;31.27;19.23;;;;;;;9.85;74.65;99351.63;4190980;34;33396;-96
2021/04/20 04:06:32;;;;;;;29.50;17.42;;;;;;;9.92;74.62;99355.22;4194550;34;34611;-96
2021/04/20 04:09:06;;;;;;;28.00;19.35;;;;;;;9.79;75.25;99360.47;4191590;34;36161;-84
2021/04/20 04:11:44;;;;;;;28.92;18.98;;;;;;;9.89;75.12;99363.72;4191556;34;33922;-96
2021/04/20 04:14:19;;;;;;;25.70;18.20;;;;;;;10.02;74.29;99366.53;4187906;34;32787;-83
2021/04/20 04:16:52;;;;;;;25.40;18.42;;;;;;;10.01;74.25;99361.34;4178184;34;33684;-95
2021/04/20 04:19:31;;;;;;;27.92;18.65;;;;;;;9.97;74.45;99360.91;4188758;34;34305;-82
2021/04/20 04:22:06;;;;;;;26.90;18.40;;;;;;;10.11;74.00;99361.84;4188687;34;35306;-83
2021/04/20 04:24:54;;;;;;;27.77;19.27;;;;;;;10.06;73.82;99354.34;4188322;34;33801;-83
2021/04/20 04:27:34;;;;;;;25.52;18.25;;;;;;;10.13;73.82;99364.34;4179823;34;35251;-82
2021/04/20 04:30:08;;;;;;;30.85;19.50;;;;;;;10.09;73.99;99355.81;4196531;34;33820;-95
2021/04/20 04:32:43;;;;;;;26.27;18.20;;;;;;;10.18;73.53;99361.91;4202095;34;33410;-83
2021/04/20 04:35:17;;;;;;;28.83;18.37;;;;;;;10.14;73.88;99361.47;4187679;34;33632;-95
2021/04/20 04:37:50;;;;;;;24.85;18.98;;;;;;;10.09;74.17;99363.91;4194695;34;33818;-83
2021/04/20 04:40:24;;;;;;;27.60;18.80;;;;;;;10.13;73.69;99362.47;4187724;34;35582;-83
2021/04/20 04:42:59;;;;;;;27.65;19.12;;;;;;;10.30;73.17;99365.75;4184952;34;35666;-83
2021/04/20 04:45:32;;;;;;;27.13;17.92;;;;;;;10.10;73.83;99370.16;4177743;34;35803;-82
2021/04/20 04:48:04;;;;;;;25.73;17.83;;;;;;;10.25;73.46;99362.78;4180706;34;34555;-92
2021/04/20 04:50:40;;;;;;;27.10;18.17;;;;;;;10.25;73.26;99363.66;4190516;34;32821;-83
2021/04/20 04:53:13;;;;;;;26.10;18.02;;;;;;;10.33;72.93;99359.13;4190763;34;33185;-82
2021/04/20 04:55:47;;;;;;;24.85;17.98;;;;;;;10.23;73.21;99365.69;4202583;34;34487;-96
2021/04/20 04:58:20;;;;;;;24.80;17.52;;;;;;;10.20;73.56;99371.47;4193021;34;34650;-96
2021/04/20 05:00:57;;;;;;;28.30;18.55;;;;;;;10.50;72.72;99365.12;4185009;34;33799;-95
2021/04/20 05:03:29;;;;;;;25.40;17.95;;;;;;;10.60;72.56;99357.50;4201830;34;33081;-82
2021/04/20 05:06:02;;;;;;;24.87;18.48;;;;;;;10.72;72.25;99366.75;4187910;34;33670;-96
2021/04/20 05:08:36;;;;;;;26.92;18.80;;;;;;;10.88;71.75;99359.34;4180939;34;33459;-95
2021/04/20 05:11:09;;;;;;;23.50;17.27;;;;;;;10.93;71.40;99362.31;4190253;34;35851;-96
2021/04/20 05:13:41;;;;;;;26.35;19.27;;;;;;;10.93;71.37;99367.72;4194870;34;33365;-84
2021/04/20 05:16:15;;;;;;;25.77;19.33;;;;;;;11.20;70.64;99370.56;4187624;34;35417;-83
2021/04/20 05:18:48;;;;;;;26.92;18.90;;;;;;;11.16;70.74;99372.00;4189678;34;34978;-83
2021/04/20 05:21:22;;;;;;;25.48;19.50;;;;;;;11.41;69.92;99370.44;4201503;34;33603;-83
2021/04/20 05:23:54;;;;;;;27.42;18.85;;;;;;;11.34;70.26;99374.97;4193409;34;33246;-83
2021/04/20 05:26:31;;;;;;;27.20;19.75;;;;;;;11.43;69.68;99370.22;4179517;34;32387;-96
2021/04/20 05:29:06;;;;;;;36.08;23.05;;;;;;;11.31;70.09;99378.91;4179198;34;34324;-96
2021/04/20 05:31:39;;;;;;;35.58;22.98;;;;;;;11.15;69.99;99368.44;4188736;34;34115;-96
2021/04/20 05:34:12;;;;;;;30.70;22.40;;;;;;;11.15;70.56;99373.00;4169525;34;32171;-83
2021/04/20 05:36:47;;;;;;;32.08;21.70;;;;;;;11.09;70.79;99370.09;4195333;34;33618;-82
2021/04/20 05:39:20;;;;;;;28.08;20.80;;;;;;;11.27;70.95;99371.41;4177828;34;33081;-96
2021/04/20 05:41:53;;;;;;;28.33;18.73;;;;;;;10.94;71.19;99378.31;4183967;34;34195;-83
2021/04/20 05:44:25;;;;;;;28.70;20.48;;;;;;;10.77;71.88;99380.47;4181784;34;33900;-96
2021/04/20 05:46:58;;;;;;;32.42;19.80;;;;;;;10.96;71.75;99375.41;4176610;34;34289;-82
2021/04/20 05:49:36;;;;;;;27.48;19.98;;;;;;;11.12;71.14;99380.50;4188644;34;34268;-96
2021/04/20 05:52:09;;;;;;;27.87;19.65;;;;;;;11.33;70.33;99372.47;4179740;34;33921;-96
2021/04/20 05:54:54;;;;;;;30.12;20.65;;;;;;;11.40;70.91;99379.59;4188796;34;33666;-96
2021/04/20 05:57:30;;;;;;;29.45;22.35;;;;;;;11.60;69.90;99373.41;4188647;34;35224;-82
2021/04/20 06:00:06;;;;;;;27.60;20.08;;;;;;;11.79;69.71;99374.50;4195215;34;34981;-96
2021/04/20 06:02:40;;;;;;;33.40;20.92;;;;;;;11.83;68.73;99373.91;4174447;34;33929;-83
2021/04/20 06:05:15;;;;;;;28.87;20.60;;;;;;;11.57;69.37;99380.09;4195932;34;35232;-92
2021/04/20 06:07:50;;;;;;;31.58;20.60;;;;;;;11.63;69.37;99378.41;4196900;34;34840;-82
2021/04/20 06:10:24;;;;;;;30.25;19.90;;;;;;;11.71;69.93;99389.06;4189481;34;34539;-96
2021/04/20 06:12:57;;;;;;;30.15;22.13;;;;;;;11.83;69.02;99382.03;4182011;34;34030;-96
2021/04/20 06:15:31;;;;;;;29.05;20.30;;;;;;;11.96;69.42;99385.81;4164255;34;33664;-96
2021/04/20 06:18:04;;;;;;;26.05;19.45;;;;;;;11.77;69.34;99387.44;4186981;34;33830;-82
2021/04/20 06:20:36;;;;;;;27.70;19.90;;;;;;;11.76;68.92;99383.87;4185032;34;34666;-82
2021/04/20 06:23:09;;;;;;;28.10;19.67;;;;;;;11.95;69.04;99385.00;4189224;34;35280;-96
2021/04/20 06:25:43;;;;;;;27.40;19.27;;;;;;;11.91;68.71;99389.13;4177566;34;34672;-82
2021/04/20 06:28:15;;;;;;;29.52;21.77;;;;;;;12.04;68.47;99388.34;4180141;34;35366;-83
2021/04/20 06:30:48;;;;;;;26.83;18.75;;;;;;;12.13;69.36;99386.28;4193111;34;34488;-82
2021/04/20 06:33:20;;;;;;;27.83;20.12;;;;;;;12.20;67.65;99381.72;4192177;34;33352;-82
2021/04/20 06:35:54;;;;;;;29.33;20.92;;;;;;;12.39;68.77;99377.34;4186497;34;33868;-82
2021/04/20 06:38:28;;;;;;;26.52;19.23;;;;;;;12.59;67.50;99384.63;4193797;34;34461;-83
2021/04/20 06:41:04;;;;;;;27.70;20.67;;;;;;;12.19;68.13;99383.56;4183305;34;35433;-88
2021/04/20 06:44:18;;;;;;;25.42;19.90;;;;;;;12.17;67.56;99388.38;4191700;34;34314;-96
2021/04/20 06:47:02;;;;;;;27.85;20.65;;;;;;;12.20;67.59;99397.97;4174325;34;33517;-88
2021/04/20 06:49:39;;;;;;;27.30;20.15;;;;;;;12.12;67.72;99401.69;4187232;34;33771;-82
2021/04/20 06:52:27;;;;;;;24.63;17.98;;;;;;;12.57;65.91;99405.69;4177668;34;33789;-83
2021/04/20 06:55:10;;;;;;;26.87;19.40;;;;;;;12.50;64.86;99403.81;4189464;34;33827;-81
2021/04/20 06:58:03;;;;;;;24.33;19.50;;;;;;;12.50;65.85;99400.25;4182710;34;33092;-84
2021/04/20 07:00:49;;;;;;;28.12;20.17;;;;;;;12.57;65.56;99405.69;4181896;34;35820;-83
2021/04/20 07:03:40;;;;;;;25.30;18.85;;;;;;;12.77;65.08;99406.53;4183732;34;34379;-84
2021/04/20 07:06:30;;;;;;;25.08;19.55;;;;;;;12.58;65.74;99415.50;4183886;34;34355;-93
2021/04/20 07:09:10;;;;;;;27.50;20.20;;;;;;;12.34;66.75;99415.91;4184482;34;33580;-84
2021/04/20 07:11:50;;;;;;;28.40;19.00;;;;;;;12.42;67.05;99412.16;4298609;28;32367;31
2021/04/20 07:15:05;;;;;;;23.83;18.75;;;;;;;12.61;65.18;99415.91;4480785;28;20148;-82
2021/04/20 07:18:06;;;;;;;25.60;19.52;;;;;;;12.69;64.69;99414.87;4437495;28;20742;-96
2021/04/20 07:21:16;;;;;;;;;;;;;;;;;;;;;
2021/04/20 07:24:10;;;;;;;21.20;16.90;;;;;;;13.12;63.84;99422.53;4264776;28;33809;-96
2021/04/20 07:30:54;;;;;;;24.00;18.52;;;;;;;13.15;63.76;99416.69;4194815;34;32624;-96
2021/04/20 07:34:02;;;;;;;26.77;19.95;;;;;;;12.67;65.20;99419.69;4194987;28;33549;-82
2021/04/20 07:36:56;;;;;;;27.92;20.25;;;;;;;13.24;64.24;99415.41;4202710;34;34245;-96
2021/04/20 07:39:44;;;;;;;25.30;18.95;;;;;;;13.25;63.72;99414.37;4208079;34;34742;-96
2021/04/20 07:42:36;;;;;;;23.83;18.08;;;;;;;13.84;63.35;99419.81;4210148;33;33988;-96
2021/04/20 07:45:36;;;;;;;25.15;19.15;;;;;;;13.68;62.15;99414.87;4198967;34;32181;-94
2021/04/20 07:48:45;;;;;;;25.20;19.48;;;;;;;13.53;63.07;99413.28;4183277;34;34270;-95
2021/04/20 07:51:44;;;;;;;23.08;18.12;;;;;;;13.95;60.62;99427.28;4209541;34;33506;-96
2021/04/20 08:06:27;;;;;;;26.20;19.37;;;;;;;13.85;60.85;99416.06;4338188;28;20107;-96
2021/04/20 08:09:37;;;;;;;25.37;19.30;;;;;;;14.12;61.29;99426.78;4240760;28;33748;31
2021/04/20 08:16:24;;;;;;;26.70;19.95;;;;;;;13.38;64.21;99426.25;4575917;28;3029824;31
2021/04/20 08:19:19;;;;;;;24.87;19.30;;;;;;;14.00;62.52;99428.53;4236776;33;31507;-94
2021/04/20 08:22:21;;;;;;;27.35;19.90;;;;;;;14.35;59.63;99425.38;4388127;28;21086;31
2021/04/20 08:25:11;;;;;;;20.67;16.48;;;;;;;14.28;61.86;99426.25;4269416;28;34367;-96
2021/04/20 08:28:20;;;;;;;24.87;19.33;;;;;;;14.93;60.26;99422.41;4235961;28;34230;-96
2021/04/20 08:38:41;;;;;;;21.95;18.10;;;;;;;14.83;59.18;99427.53;4569826;28;32794;-90
2021/04/20 08:41:39;;;;;;;23.95;16.90;;;;;;;14.51;60.26;99424.84;4442051;28;31827;31
2021/04/20 08:45:02;;;;;;;22.17;17.13;;;;;;;14.63;57.81;99423.09;4500164;28;20101;31
2021/04/20 08:48:51;;;;;;;20.20;15.15;;;;;;;14.64;58.02;99426.62;4630244;28;262446;31
2021/04/20 08:51:46;;;;;;;24.25;16.17;;;;;;;14.19;60.93;99427.56;4785872;28;34765;-96
2021/04/20 09:05:05;;;;;;;22.80;15.60;;;;;;;15.25;55.64;99411.41;4542125;28;33001;-96
2021/04/20 09:18:36;;;;;;;19.33;15.48;;;;;;;16.11;54.84;99410.56;4571595;28;20067;31
2021/04/20 09:25:20;;;;;;;22.02;16.25;;;;;;;16.29;54.96;99410.53;4163774;34;20104;-84
2021/04/20 09:28:16;;;;;;;19.40;14.57;;;;;;;16.41;54.18;99411.38;4300702;28;34292;-86
2021/04/20 09:34:31;;;;;;;15.95;13.23;;;;;;;16.57;51.62;99400.84;4714719;28;20142;-85
2021/04/20 09:40:36;;;;;;;25.20;15.70;;;;;;;16.11;51.31;99402.41;4341542;28;20119;-91
2021/04/20 09:43:18;;;;;;;21.30;15.85;;;;;;;16.22;52.83;99401.63;4170260;34;34466;-86
2021/04/20 09:50:02;;;;;;;17.27;14.05;;;;;;;17.12;51.25;99392.38;3933432;28;31129;-84
2021/04/20 09:52:43;;;;;;;21.35;14.50;;;;;;;17.52;49.45;99398.13;4241073;28;34277;-90
2021/04/20 09:55:24;;;;;;;18.08;13.85;;;;;;;16.72;53.53;99398.53;4562703;28;32662;-93
2021/04/20 09:58:40;;;;;;;17.48;13.43;;;;;;;16.92;53.10;99394.62;4720407;28;20087;31
2021/04/20 10:01:21;;;;;;;19.08;15.68;;;;;;;17.49;50.47;99390.41;4397432;28;31553;-93
2021/04/20 10:04:07;;;;;;;17.85;12.73;;;;;;;17.23;51.28;99389.84;4177413;33;33692;-86
2021/04/20 10:07:33;;;;;;;16.80;13.50;;;;;;;17.66;47.84;99388.56;4510396;28;33538;31
2021/04/20 10:10:35;;;;;;;17.58;14.43;;;;;;;17.74;49.54;99395.53;4318347;29;33419;-84
2021/04/20 10:13:56;;;;;;;16.42;12.45;;;;;;;17.86;49.13;99398.25;4316529;28;33793;-96
2021/04/20 10:16:36;;;;;;;16.98;11.80;;;;;;;17.89;46.92;99392.28;4244493;28;31195;-85
